createdAt,value
2017-12-14T00:03:05.097Z,1.40
2017-12-14T00:08:34.140Z,1.00
2017-12-14T00:14:02.311Z,1.30
2017-12-14T00:19:30.494Z,1.10
2017-12-14T00:24:58.085Z,1.40
2017-12-14T00:30:26.303Z,1.20
2017-12-14T00:35:54.479Z,1.57
2017-12-14T00:41:36.625Z,1.50
2017-12-14T00:47:04.797Z,1.77
2017-12-14T00:52:32.981Z,1.20
2017-12-14T00:58:01.154Z,1.33
2017-12-14T01:03:29.330Z,1.37
2017-12-14T01:08:58.280Z,1.50
2017-12-14T01:14:26.480Z,1.23
2017-12-14T01:19:58.656Z,1.30
2017-12-14T01:25:26.903Z,1.60
2017-12-14T01:30:55.077Z,0.90
2017-12-14T01:36:23.260Z,0.90
2017-12-14T01:41:52.228Z,0.90
2017-12-14T01:47:22.421Z,1.20
2017-12-14T01:52:50.609Z,0.90
2017-12-14T01:58:18.846Z,0.80
2017-12-14T02:03:47.043Z,0.80
2017-12-14T02:09:16.807Z,0.60
2017-12-14T02:14:44.976Z,0.70
2017-12-14T02:20:16.168Z,0.70
2017-12-14T02:25:44.348Z,0.80
2017-12-14T02:31:12.530Z,0.70
2017-12-14T02:36:40.975Z,0.90
2017-12-14T02:42:28.363Z,0.67
2017-12-14T02:47:56.576Z,0.60
2017-12-14T02:53:25.529Z,0.60
2017-12-14T02:58:57.268Z,0.77
2017-12-14T03:04:25.555Z,0.70
2017-12-14T03:09:53.736Z,0.60
2017-12-14T03:15:21.938Z,0.50
2017-12-14T03:20:50.375Z,0.50
2017-12-14T03:26:19.506Z,0.60
2017-12-14T03:31:47.684Z,0.50
2017-12-14T03:37:15.871Z,0.50
2017-12-14T03:42:44.951Z,0.60
2017-12-14T03:48:13.120Z,0.50
2017-12-14T03:53:41.556Z,0.60
2017-12-14T03:59:09.749Z,0.70
2017-12-14T04:04:37.950Z,0.70
2017-12-14T04:10:06.135Z,0.60
2017-12-14T04:15:35.119Z,0.60
2017-12-14T04:21:05.290Z,0.50
2017-12-14T04:26:33.486Z,0.73
2017-12-14T04:32:01.688Z,0.70
2017-12-14T04:37:30.685Z,0.60
2017-12-14T04:42:59.828Z,0.67
2017-12-14T04:48:28.019Z,0.60
2017-12-14T04:53:56.214Z,0.60
2017-12-14T04:59:25.161Z,0.60
2017-12-14T05:04:53.419Z,0.60
2017-12-14T05:10:21.619Z,0.70
2017-12-14T05:15:49.833Z,0.70
2017-12-14T05:21:18.004Z,0.70
2017-12-14T05:26:46.190Z,0.70
2017-12-14T05:32:14.888Z,0.70
2017-12-14T05:37:43.190Z,0.50
2017-12-14T05:43:11.449Z,0.73
2017-12-14T05:48:40.409Z,0.60
2017-12-14T05:54:08.598Z,0.50
2017-12-14T05:59:37.752Z,0.60
2017-12-14T06:05:05.973Z,0.60
2017-12-14T06:10:34.182Z,0.50
2017-12-14T06:16:02.408Z,0.50
2017-12-14T06:21:30.611Z,0.50
2017-12-14T06:26:58.850Z,0.60
2017-12-14T06:32:27.104Z,0.70
2017-12-14T06:37:55.297Z,0.70
2017-12-14T06:43:23.481Z,0.53
2017-12-14T06:48:51.708Z,0.50
2017-12-14T06:54:20.051Z,0.60
2017-12-14T06:59:48.227Z,0.60
2017-12-14T07:05:16.426Z,0.50
2017-12-14T07:10:44.624Z,0.50
2017-12-14T07:16:12.816Z,0.60
2017-12-14T07:21:41.029Z,0.50
2017-12-14T07:27:09.260Z,0.70
2017-12-14T07:32:37.462Z,0.70
2017-12-14T07:38:05.674Z,0.70
2017-12-14T07:43:33.854Z,1.17
2017-12-14T07:49:19.928Z,0.73
2017-12-14T07:54:48.124Z,0.80
2017-12-14T08:00:17.094Z,0.60
2017-12-14T08:05:45.318Z,0.60
2017-12-14T08:11:13.493Z,0.70
2017-12-14T08:16:41.680Z,0.67
2017-12-14T08:22:09.912Z,0.60
2017-12-14T08:27:38.104Z,0.70
2017-12-14T08:33:06.300Z,1.00
2017-12-14T08:38:35.277Z,0.63
2017-12-14T08:44:03.442Z,0.87
2017-12-14T08:49:32.415Z,0.60
2017-12-14T08:55:00.610Z,0.70
2017-12-14T09:00:28.797Z,0.80
2017-12-14T09:05:56.998Z,1.47
2017-12-14T09:11:25.198Z,0.70
2017-12-14T09:16:53.410Z,0.60
2017-12-14T09:22:21.631Z,0.50
2017-12-14T09:27:49.828Z,0.60
2017-12-14T09:33:18.795Z,0.50
2017-12-14T09:38:46.990Z,0.60
2017-12-14T09:44:15.946Z,0.50
2017-12-14T09:49:44.151Z,0.40
2017-12-14T09:55:13.110Z,0.70
2017-12-14T10:00:44.335Z,0.60
2017-12-14T10:06:12.603Z,0.67
2017-12-14T10:11:45.174Z,0.60
2017-12-14T10:17:14.314Z,0.60
2017-12-14T10:22:42.537Z,0.50
2017-12-14T10:28:10.762Z,0.77
2017-12-14T10:33:38.964Z,0.50
2017-12-14T10:39:07.162Z,0.60
2017-12-14T10:44:36.108Z,0.60
2017-12-14T10:50:04.289Z,0.60
2017-12-14T10:55:32.540Z,0.80
2017-12-14T11:01:07.109Z,0.60
2017-12-14T11:06:36.111Z,0.90
2017-12-14T11:12:04.315Z,0.77
2017-12-14T11:17:32.526Z,0.80
2017-12-14T11:23:00.734Z,0.80
2017-12-14T11:28:29.845Z,0.60
2017-12-14T11:33:58.878Z,0.63
2017-12-14T11:39:27.873Z,0.77
2017-12-14T11:44:56.137Z,0.83
2017-12-14T11:50:24.350Z,0.80
2017-12-14T11:55:52.570Z,1.13
2017-12-14T12:01:20.789Z,0.80
2017-12-14T12:06:49.014Z,1.00
2017-12-14T12:12:17.215Z,0.90
2017-12-14T12:17:45.410Z,0.70
2017-12-14T12:23:13.635Z,0.80
2017-12-14T12:28:42.573Z,0.60
2017-12-14T12:34:10.929Z,0.90
2017-12-14T12:39:40.211Z,0.77
2017-12-14T12:45:09.497Z,0.70
2017-12-14T12:50:37.688Z,1.13
2017-12-14T12:56:05.855Z,0.90
2017-12-14T13:01:34.059Z,1.03
2017-12-14T13:07:02.261Z,1.10
2017-12-14T13:12:31.722Z,0.80
2017-12-14T13:17:59.952Z,1.23
2017-12-14T13:23:28.179Z,1.60
2017-12-14T13:29:08.866Z,1.63
2017-12-14T13:34:37.047Z,1.30
2017-12-14T13:40:05.269Z,1.37
2017-12-14T13:45:33.439Z,1.20
2017-12-14T13:51:02.540Z,1.03
2017-12-14T13:56:30.713Z,1.40
2017-12-14T14:02:00.902Z,1.60
2017-12-14T14:07:34.500Z,1.43
2017-12-14T14:13:02.678Z,1.40
2017-12-14T14:18:30.858Z,1.77
2017-12-14T14:23:59.128Z,1.40
2017-12-14T14:29:27.390Z,1.20
2017-12-14T14:34:55.509Z,1.57
2017-12-14T14:40:25.706Z,1.50
2017-12-14T14:45:53.922Z,0.90
2017-12-14T14:51:22.103Z,1.80
2017-12-14T14:56:57.071Z,1.30
2017-12-14T15:02:25.262Z,0.90
2017-12-14T15:07:53.443Z,1.20
2017-12-14T15:13:21.642Z,2.33
2017-12-14T15:18:51.605Z,1.93
2017-12-14T15:24:21.490Z,1.00
2017-12-14T15:29:49.811Z,1.50
2017-12-14T15:35:17.975Z,1.00
2017-12-14T15:40:46.149Z,1.40
2017-12-14T15:46:14.355Z,1.57
2017-12-14T15:51:44.252Z,0.80
2017-12-14T15:57:17.068Z,1.10
2017-12-14T16:02:47.265Z,1.43
2017-12-14T16:08:21.706Z,0.87
2017-12-14T16:13:51.073Z,1.10
2017-12-14T16:19:19.354Z,1.47
2017-12-14T16:24:48.310Z,1.57
2017-12-14T16:30:16.596Z,1.03
2017-12-14T16:35:44.799Z,1.00
2017-12-14T16:41:12.971Z,1.40
2017-12-14T16:46:41.156Z,1.17
2017-12-14T16:52:09.348Z,1.17
2017-12-14T16:57:37.535Z,1.37
2017-12-14T17:03:05.708Z,0.90
2017-12-14T17:08:34.729Z,1.10
2017-12-14T17:14:02.925Z,1.10
2017-12-14T17:19:31.190Z,1.20
2017-12-14T17:24:59.436Z,0.97
2017-12-14T17:30:27.640Z,0.97
2017-12-14T17:35:55.895Z,0.97
2017-12-14T17:41:24.083Z,1.00
2017-12-14T17:46:56.246Z,0.80
2017-12-14T17:52:25.217Z,1.10
2017-12-14T17:57:54.200Z,0.90
2017-12-14T18:03:23.173Z,1.10
2017-12-14T18:08:51.408Z,1.23
2017-12-14T18:14:19.656Z,0.97
2017-12-14T18:19:48.855Z,1.00
2017-12-14T18:25:17.065Z,1.10
2017-12-14T18:30:45.369Z,1.07
2017-12-14T18:36:13.553Z,1.40
2017-12-14T18:41:56.416Z,1.20
2017-12-14T18:47:25.433Z,1.13
2017-12-14T18:52:53.646Z,1.30
2017-12-14T18:58:21.833Z,0.87
2017-12-14T19:03:53.164Z,1.00
2017-12-14T19:09:21.485Z,0.80
2017-12-14T19:14:49.797Z,0.90
2017-12-14T19:20:18.993Z,0.90
2017-12-14T19:25:47.254Z,0.90
2017-12-14T19:31:16.416Z,0.97
2017-12-14T19:36:44.635Z,0.73
2017-12-14T19:42:12.834Z,0.53
2017-12-14T19:47:46.685Z,0.60
2017-12-14T19:53:15.761Z,0.60
2017-12-14T19:58:43.923Z,0.70
2017-12-14T20:04:12.089Z,0.60
2017-12-14T20:09:40.316Z,0.67
2017-12-14T20:15:09.615Z,0.70
2017-12-14T20:20:41.252Z,0.80
2017-12-14T20:26:09.461Z,0.80
2017-12-14T20:31:38.543Z,0.60
2017-12-14T20:37:06.757Z,0.90
2017-12-14T20:42:35.924Z,0.70
2017-12-14T20:48:04.942Z,0.67
2017-12-14T20:53:34.778Z,0.70
2017-12-14T20:59:03.086Z,0.63
2017-12-14T21:04:32.042Z,0.80
2017-12-14T21:10:00.245Z,0.80
2017-12-14T21:15:42.032Z,0.80
2017-12-14T21:21:10.220Z,0.77
2017-12-14T21:26:38.384Z,0.90
2017-12-14T21:32:09.799Z,0.90
2017-12-14T21:37:39.906Z,0.60
2017-12-14T21:43:11.309Z,0.60
2017-12-14T21:48:39.481Z,0.57
2017-12-14T21:54:15.366Z,0.70
2017-12-14T21:59:43.554Z,0.50
2017-12-14T22:05:11.762Z,0.60
2017-12-14T22:10:39.945Z,0.60
2017-12-14T22:16:08.127Z,0.70
2017-12-14T22:21:44.770Z,0.60
2017-12-14T22:27:12.958Z,0.80
2017-12-14T22:32:41.146Z,0.70
2017-12-14T22:38:10.091Z,0.83
2017-12-14T22:43:38.288Z,1.10
2017-12-14T22:49:06.482Z,0.70
2017-12-14T22:54:34.669Z,0.63
2017-12-14T23:00:04.956Z,0.80
2017-12-14T23:05:33.143Z,0.60
2017-12-14T23:11:02.098Z,0.57
2017-12-14T23:16:31.066Z,0.43
2017-12-14T23:21:59.261Z,0.57
2017-12-14T23:27:27.431Z,0.67
2017-12-14T23:33:15.944Z,0.80
2017-12-14T23:38:44.319Z,0.70
2017-12-14T23:44:12.506Z,0.63
2017-12-14T23:49:41.449Z,0.90
2017-12-14T23:55:18.785Z,0.93
